sensor_id;sensor_type;location;lat;lon;timestamp;temperature;humidity
20829;DHT22;10575;50.124;8.582;2023-08-24T00:01:00;21.80;99.90
20829;DHT22;10575;50.124;8.582;2023-08-24T00:03:26;21.90;99.90
20829;DHT22;10575;50.124;8.582;2023-08-24T00:05:51;22.10;99.90
20829;DHT22;10575;50.124;8.582;2023-08-24T00:08:17;22.00;99.90
20829;DHT22;10575;50.124;8.582;2023-08-24T00:10:43;21.80;99.90
20829;DHT22;10575;50.124;8.582;2023-08-24T00:13:12;21.70;99.90
20829;DHT22;10575;50.124;8.582;2023-08-24T00:15:37;21.50;99.90
20829;DHT22;10575;50.124;8.582;2023-08-24T00:18:04;21.50;99.90
20829;DHT22;10575;50.124;8.582;2023-08-24T00:20:30;21.40;99.90
20829;DHT22;10575;50.124;8.582;2023-08-24T00:22:58;21.40;99.90
20829;DHT22;10575;50.124;8.582;2023-08-24T00:25:24;21.40;99.90
20829;DHT22;10575;50.124;8.582;2023-08-24T00:27:49;21.40;99.90
20829;DHT22;10575;50.124;8.582;2023-08-24T00:30:15;21.30;99.90
20829;DHT22;10575;50.124;8.582;2023-08-24T00:32:41;21.40;99.90
20829;DHT22;10575;50.124;8.582;2023-08-24T00:35:08;21.50;99.90
20829;DHT22;10575;50.124;8.582;2023-08-24T00:37:35;21.60;99.90
20829;DHT22;10575;50.124;8.582;2023-08-24T00:40:02;21.60;99.90
20829;DHT22;10575;50.124;8.582;2023-08-24T00:42:37;21.70;99.90
20829;DHT22;10575;50.124;8.582;2023-08-24T00:45:04;21.80;99.90
20829;DHT22;10575;50.124;8.582;2023-08-24T00:47:30;21.60;99.90
20829;DHT22;10575;50.124;8.582;2023-08-24T00:49:55;21.60;99.90
20829;DHT22;10575;50.124;8.582;2023-08-24T00:52:21;21.60;99.90
20829;DHT22;10575;50.124;8.582;2023-08-24T00:54:47;21.60;99.90
20829;DHT22;10575;50.124;8.582;2023-08-24T00:57:13;21.50;99.90
20829;DHT22;10575;50.124;8.582;2023-08-24T00:59:39;21.40;99.90
20829;DHT22;10575;50.124;8.582;2023-08-24T01:02:05;21.40;99.90
20829;DHT22;10575;50.124;8.582;2023-08-24T01:04:30;21.40;99.90
20829;DHT22;10575;50.124;8.582;2023-08-24T01:06:56;21.60;99.90
20829;DHT22;10575;50.124;8.582;2023-08-24T01:09:22;21.70;99.90
20829;DHT22;10575;50.124;8.582;2023-08-24T01:12:02;21.80;99.90
20829;DHT22;10575;50.124;8.582;2023-08-24T01:14:53;21.90;99.90
20829;DHT22;10575;50.124;8.582;2023-08-24T01:17:22;21.90;99.90
20829;DHT22;10575;50.124;8.582;2023-08-24T01:19:49;21.90;99.90
20829;DHT22;10575;50.124;8.582;2023-08-24T01:25:16;22.00;99.90
20829;DHT22;10575;50.124;8.582;2023-08-24T01:27:47;22.00;99.90
20829;DHT22;10575;50.124;8.582;2023-08-24T01:30:13;22.00;99.90
20829;DHT22;10575;50.124;8.582;2023-08-24T01:32:39;22.10;99.90
20829;DHT22;10575;50.124;8.582;2023-08-24T01:35:07;22.10;99.90
20829;DHT22;10575;50.124;8.582;2023-08-24T01:37:34;22.10;99.90
20829;DHT22;10575;50.124;8.582;2023-08-24T01:42:41;22.10;99.90
20829;DHT22;10575;50.124;8.582;2023-08-24T01:45:08;22.10;99.90
20829;DHT22;10575;50.124;8.582;2023-08-24T01:47:35;22.00;99.90
20829;DHT22;10575;50.124;8.582;2023-08-24T01:50:02;21.80;99.90
20829;DHT22;10575;50.124;8.582;2023-08-24T01:52:27;21.60;99.90
20829;DHT22;10575;50.124;8.582;2023-08-24T01:54:53;21.40;99.90
20829;DHT22;10575;50.124;8.582;2023-08-24T01:57:19;21.50;99.90
20829;DHT22;10575;50.124;8.582;2023-08-24T01:59:44;21.60;99.90
20829;DHT22;10575;50.124;8.582;2023-08-24T02:02:10;21.70;99.90
20829;DHT22;10575;50.124;8.582;2023-08-24T02:04:35;21.80;99.90
20829;DHT22;10575;50.124;8.582;2023-08-24T02:07:01;21.80;99.90
20829;DHT22;10575;50.124;8.582;2023-08-24T02:09:26;21.70;99.90
20829;DHT22;10575;50.124;8.582;2023-08-24T02:11:52;21.70;99.90
20829;DHT22;10575;50.124;8.582;2023-08-24T02:14:17;21.60;99.90
20829;DHT22;10575;50.124;8.582;2023-08-24T02:16:43;21.30;99.90
20829;DHT22;10575;50.124;8.582;2023-08-24T02:19:08;21.00;99.90
20829;DHT22;10575;50.124;8.582;2023-08-24T02:21:37;20.90;99.90
20829;DHT22;10575;50.124;8.582;2023-08-24T02:24:04;20.70;99.90
20829;DHT22;10575;50.124;8.582;2023-08-24T02:26:29;20.50;99.90
20829;DHT22;10575;50.124;8.582;2023-08-24T02:28:57;20.40;99.90
20829;DHT22;10575;50.124;8.582;2023-08-24T02:31:23;20.30;99.90
20829;DHT22;10575;50.124;8.582;2023-08-24T02:33:48;20.30;99.90
20829;DHT22;10575;50.124;8.582;2023-08-24T02:36:14;20.20;99.90
20829;DHT22;10575;50.124;8.582;2023-08-24T02:38:40;20.20;99.90
20829;DHT22;10575;50.124;8.582;2023-08-24T02:41:06;20.40;99.90
20829;DHT22;10575;50.124;8.582;2023-08-24T02:43:33;20.30;99.90
20829;DHT22;10575;50.124;8.582;2023-08-24T02:46:07;20.20;99.90
20829;DHT22;10575;50.124;8.582;2023-08-24T02:48:33;20.20;99.90
20829;DHT22;10575;50.124;8.582;2023-08-24T02:51:00;20.10;99.90
20829;DHT22;10575;50.124;8.582;2023-08-24T02:53:27;20.00;99.90
20829;DHT22;10575;50.124;8.582;2023-08-24T02:55:53;20.00;99.90
20829;DHT22;10575;50.124;8.582;2023-08-24T02:58:19;20.00;99.90
20829;DHT22;10575;50.124;8.582;2023-08-24T03:00:45;20.10;99.90
20829;DHT22;10575;50.124;8.582;2023-08-24T03:03:10;20.10;99.90
20829;DHT22;10575;50.124;8.582;2023-08-24T03:05:36;20.10;99.90
20829;DHT22;10575;50.124;8.582;2023-08-24T03:08:01;20.20;99.90
20829;DHT22;10575;50.124;8.582;2023-08-24T03:10:27;20.10;99.90
20829;DHT22;10575;50.124;8.582;2023-08-24T03:12:52;20.20;99.90
20829;DHT22;10575;50.124;8.582;2023-08-24T03:15:18;20.10;99.90
20829;DHT22;10575;50.124;8.582;2023-08-24T03:17:44;20.10;99.90
20829;DHT22;10575;50.124;8.582;2023-08-24T03:20:09;20.10;99.90
20829;DHT22;10575;50.124;8.582;2023-08-24T03:22:36;20.00;99.90
20829;DHT22;10575;50.124;8.582;2023-08-24T03:25:04;20.00;99.90
20829;DHT22;10575;50.124;8.582;2023-08-24T03:27:30;20.00;99.90
20829;DHT22;10575;50.124;8.582;2023-08-24T03:29:55;20.00;99.90
20829;DHT22;10575;50.124;8.582;2023-08-24T03:32:21;19.90;99.90
20829;DHT22;10575;50.124;8.582;2023-08-24T03:34:46;19.80;99.90
20829;DHT22;10575;50.124;8.582;2023-08-24T03:37:12;19.70;99.90
20829;DHT22;10575;50.124;8.582;2023-08-24T03:39:39;19.80;99.90
20829;DHT22;10575;50.124;8.582;2023-08-24T03:42:04;19.80;99.90
20829;DHT22;10575;50.124;8.582;2023-08-24T03:44:30;19.90;99.90
20829;DHT22;10575;50.124;8.582;2023-08-24T03:46:55;19.90;99.90
20829;DHT22;10575;50.124;8.582;2023-08-24T03:49:21;19.80;99.90
20829;DHT22;10575;50.124;8.582;2023-08-24T03:51:46;19.90;99.90
20829;DHT22;10575;50.124;8.582;2023-08-24T03:54:12;19.90;99.90
20829;DHT22;10575;50.124;8.582;2023-08-24T03:56:38;20.10;99.90
20829;DHT22;10575;50.124;8.582;2023-08-24T03:59:04;20.20;99.90
20829;DHT22;10575;50.124;8.582;2023-08-24T04:01:29;20.20;99.90
20829;DHT22;10575;50.124;8.582;2023-08-24T04:03:55;20.10;99.90
20829;DHT22;10575;50.124;8.582;2023-08-24T04:06:20;20.00;99.90
20829;DHT22;10575;50.124;8.582;2023-08-24T04:08:46;19.90;99.90
20829;DHT22;10575;50.124;8.582;2023-08-24T04:11:12;19.80;99.90
20829;DHT22;10575;50.124;8.582;2023-08-24T04:13:37;19.80;99.90
20829;DHT22;10575;50.124;8.582;2023-08-24T04:16:03;19.70;99.90
20829;DHT22;10575;50.124;8.582;2023-08-24T04:18:29;19.70;99.90
20829;DHT22;10575;50.124;8.582;2023-08-24T04:20:55;19.70;99.90
20829;DHT22;10575;50.124;8.582;2023-08-24T04:23:27;19.70;99.90
20829;DHT22;10575;50.124;8.582;2023-08-24T04:25:53;19.80;99.90
20829;DHT22;10575;50.124;8.582;2023-08-24T04:28:19;19.80;99.90
20829;DHT22;10575;50.124;8.582;2023-08-24T04:30:55;19.90;99.90
20829;DHT22;10575;50.124;8.582;2023-08-24T04:33:23;19.90;99.90
20829;DHT22;10575;50.124;8.582;2023-08-24T04:35:49;19.90;99.90
20829;DHT22;10575;50.124;8.582;2023-08-24T04:38:16;19.80;99.90
20829;DHT22;10575;50.124;8.582;2023-08-24T04:40:59;19.80;99.90
20829;DHT22;10575;50.124;8.582;2023-08-24T04:43:25;19.70;99.90
20829;DHT22;10575;50.124;8.582;2023-08-24T04:45:53;19.50;99.90
20829;DHT22;10575;50.124;8.582;2023-08-24T04:48:22;19.50;99.90
20829;DHT22;10575;50.124;8.582;2023-08-24T04:50:48;19.50;99.90
20829;DHT22;10575;50.124;8.582;2023-08-24T04:53:19;19.60;99.90
20829;DHT22;10575;50.124;8.582;2023-08-24T04:55:45;19.70;99.90
20829;DHT22;10575;50.124;8.582;2023-08-24T04:58:11;19.60;99.90
20829;DHT22;10575;50.124;8.582;2023-08-24T05:00:37;19.60;99.90
20829;DHT22;10575;50.124;8.582;2023-08-24T05:03:04;19.50;99.90
20829;DHT22;10575;50.124;8.582;2023-08-24T05:05:33;19.50;99.90
20829;DHT22;10575;50.124;8.582;2023-08-24T05:08:00;19.50;99.90
20829;DHT22;10575;50.124;8.582;2023-08-24T05:10:29;19.60;99.90
20829;DHT22;10575;50.124;8.582;2023-08-24T05:12:55;19.70;99.90
20829;DHT22;10575;50.124;8.582;2023-08-24T05:15:21;19.70;99.90
20829;DHT22;10575;50.124;8.582;2023-08-24T05:17:46;19.80;99.90
20829;DHT22;10575;50.124;8.582;2023-08-24T05:20:12;19.80;99.90
20829;DHT22;10575;50.124;8.582;2023-08-24T05:22:38;19.90;99.90
20829;DHT22;10575;50.124;8.582;2023-08-24T05:25:04;20.00;99.90
20829;DHT22;10575;50.124;8.582;2023-08-24T05:27:32;20.30;99.90
20829;DHT22;10575;50.124;8.582;2023-08-24T05:29:58;20.60;99.90
20829;DHT22;10575;50.124;8.582;2023-08-24T05:32:24;20.90;99.90
20829;DHT22;10575;50.124;8.582;2023-08-24T05:34:49;21.20;99.90
20829;DHT22;10575;50.124;8.582;2023-08-24T05:37:15;21.50;99.90
20829;DHT22;10575;50.124;8.582;2023-08-24T05:39:41;21.50;99.90
20829;DHT22;10575;50.124;8.582;2023-08-24T05:42:07;21.70;99.90
20829;DHT22;10575;50.124;8.582;2023-08-24T05:44:33;21.90;99.90
20829;DHT22;10575;50.124;8.582;2023-08-24T05:46:58;21.90;99.90
20829;DHT22;10575;50.124;8.582;2023-08-24T05:49:24;22.00;99.90
20829;DHT22;10575;50.124;8.582;2023-08-24T05:51:50;22.20;99.90
20829;DHT22;10575;50.124;8.582;2023-08-24T05:54:16;22.50;99.90
20829;DHT22;10575;50.124;8.582;2023-08-24T05:56:45;22.60;99.90
20829;DHT22;10575;50.124;8.582;2023-08-24T05:59:11;22.70;99.90
20829;DHT22;10575;50.124;8.582;2023-08-24T06:01:37;22.70;99.90
20829;DHT22;10575;50.124;8.582;2023-08-24T06:04:07;22.80;99.90
20829;DHT22;10575;50.124;8.582;2023-08-24T06:06:33;22.90;99.90
20829;DHT22;10575;50.124;8.582;2023-08-24T06:08:59;22.80;99.90
20829;DHT22;10575;50.124;8.582;2023-08-24T06:11:25;22.80;99.90
20829;DHT22;10575;50.124;8.582;2023-08-24T06:13:50;22.90;99.90
20829;DHT22;10575;50.124;8.582;2023-08-24T06:16:19;23.00;99.90
20829;DHT22;10575;50.124;8.582;2023-08-24T06:18:44;23.00;99.90
20829;DHT22;10575;50.124;8.582;2023-08-24T06:21:10;23.00;99.90
20829;DHT22;10575;50.124;8.582;2023-08-24T06:23:35;23.00;99.90
20829;DHT22;10575;50.124;8.582;2023-08-24T06:26:01;23.00;99.90
20829;DHT22;10575;50.124;8.582;2023-08-24T06:28:27;23.00;99.90
20829;DHT22;10575;50.124;8.582;2023-08-24T06:30:55;23.10;99.90
20829;DHT22;10575;50.124;8.582;2023-08-24T06:33:20;23.10;99.90
20829;DHT22;10575;50.124;8.582;2023-08-24T06:35:46;23.00;99.90
20829;DHT22;10575;50.124;8.582;2023-08-24T06:38:11;22.80;99.90
20829;DHT22;10575;50.124;8.582;2023-08-24T06:40:37;22.70;99.90
20829;DHT22;10575;50.124;8.582;2023-08-24T06:43:02;22.70;99.90
20829;DHT22;10575;50.124;8.582;2023-08-24T06:45:28;22.70;99.90
20829;DHT22;10575;50.124;8.582;2023-08-24T06:47:53;22.40;99.90
20829;DHT22;10575;50.124;8.582;2023-08-24T06:50:20;22.00;99.90
20829;DHT22;10575;50.124;8.582;2023-08-24T06:52:45;21.70;99.90
20829;DHT22;10575;50.124;8.582;2023-08-24T06:55:11;21.50;99.90
20829;DHT22;10575;50.124;8.582;2023-08-24T06:57:37;21.40;99.90
20829;DHT22;10575;50.124;8.582;2023-08-24T07:00:03;21.30;99.90
20829;DHT22;10575;50.124;8.582;2023-08-24T07:02:34;21.20;99.90
20829;DHT22;10575;50.124;8.582;2023-08-24T07:05:00;21.20;99.90
20829;DHT22;10575;50.124;8.582;2023-08-24T07:07:26;21.40;99.90
20829;DHT22;10575;50.124;8.582;2023-08-24T07:09:51;21.60;99.90
20829;DHT22;10575;50.124;8.582;2023-08-24T07:12:17;21.80;99.90
20829;DHT22;10575;50.124;8.582;2023-08-24T07:14:43;21.90;99.90
20829;DHT22;10575;50.124;8.582;2023-08-24T07:17:08;22.10;99.90
20829;DHT22;10575;50.124;8.582;2023-08-24T07:19:34;22.00;99.90
20829;DHT22;10575;50.124;8.582;2023-08-24T07:21:59;21.80;99.90
20829;DHT22;10575;50.124;8.582;2023-08-24T07:24:25;21.60;99.90
20829;DHT22;10575;50.124;8.582;2023-08-24T07:26:52;21.50;99.90
20829;DHT22;10575;50.124;8.582;2023-08-24T07:29:19;21.50;99.90
20829;DHT22;10575;50.124;8.582;2023-08-24T07:31:44;21.60;99.90
20829;DHT22;10575;50.124;8.582;2023-08-24T07:34:10;21.50;99.90
20829;DHT22;10575;50.124;8.582;2023-08-24T07:36:35;21.50;99.90
20829;DHT22;10575;50.124;8.582;2023-08-24T07:39:01;21.40;99.90
20829;DHT22;10575;50.124;8.582;2023-08-24T07:41:27;21.50;99.90
20829;DHT22;10575;50.124;8.582;2023-08-24T07:43:53;21.60;99.90
20829;DHT22;10575;50.124;8.582;2023-08-24T07:46:18;21.30;99.90
20829;DHT22;10575;50.124;8.582;2023-08-24T07:48:43;21.30;99.90
20829;DHT22;10575;50.124;8.582;2023-08-24T07:51:09;21.20;99.90
20829;DHT22;10575;50.124;8.582;2023-08-24T07:53:35;21.30;99.90
20829;DHT22;10575;50.124;8.582;2023-08-24T07:56:00;21.30;99.90
20829;DHT22;10575;50.124;8.582;2023-08-24T07:58:27;21.40;99.90
20829;DHT22;10575;50.124;8.582;2023-08-24T08:00:53;21.70;99.90
20829;DHT22;10575;50.124;8.582;2023-08-24T08:03:19;21.90;99.90
20829;DHT22;10575;50.124;8.582;2023-08-24T08:05:45;22.20;99.90
20829;DHT22;10575;50.124;8.582;2023-08-24T08:08:11;22.20;99.90
20829;DHT22;10575;50.124;8.582;2023-08-24T08:10:37;22.20;99.90
20829;DHT22;10575;50.124;8.582;2023-08-24T08:13:03;22.10;99.90
20829;DHT22;10575;50.124;8.582;2023-08-24T08:15:28;22.00;99.90
20829;DHT22;10575;50.124;8.582;2023-08-24T08:17:54;22.00;99.90
20829;DHT22;10575;50.124;8.582;2023-08-24T08:20:19;22.30;99.90
20829;DHT22;10575;50.124;8.582;2023-08-24T08:22:45;22.60;99.90
20829;DHT22;10575;50.124;8.582;2023-08-24T08:25:11;22.80;99.90
20829;DHT22;10575;50.124;8.582;2023-08-24T08:27:37;23.10;99.90
20829;DHT22;10575;50.124;8.582;2023-08-24T08:30:04;23.20;99.90
20829;DHT22;10575;50.124;8.582;2023-08-24T08:32:30;23.00;99.90
20829;DHT22;10575;50.124;8.582;2023-08-24T08:34:56;22.80;99.90
20829;DHT22;10575;50.124;8.582;2023-08-24T08:37:24;24.00;99.90
20829;DHT22;10575;50.124;8.582;2023-08-24T08:39:49;26.10;99.90
20829;DHT22;10575;50.124;8.582;2023-08-24T08:42:15;27.10;99.90
20829;DHT22;10575;50.124;8.582;2023-08-24T08:44:42;28.30;99.90
20829;DHT22;10575;50.124;8.582;2023-08-24T08:47:10;30.10;99.90
20829;DHT22;10575;50.124;8.582;2023-08-24T08:49:39;32.60;99.90
20829;DHT22;10575;50.124;8.582;2023-08-24T08:52:06;34.80;99.90
20829;DHT22;10575;50.124;8.582;2023-08-24T08:54:32;37.80;93.50
20829;DHT22;10575;50.124;8.582;2023-08-24T08:57:01;38.30;89.60
20829;DHT22;10575;50.124;8.582;2023-08-24T08:59:30;39.70;81.00
20829;DHT22;10575;50.124;8.582;2023-08-24T09:02:01;39.50;76.40
20829;DHT22;10575;50.124;8.582;2023-08-24T09:04:31;40.30;68.00
20829;DHT22;10575;50.124;8.582;2023-08-24T09:06:57;41.90;61.30
20829;DHT22;10575;50.124;8.582;2023-08-24T09:09:23;43.70;58.10
20829;DHT22;10575;50.124;8.582;2023-08-24T09:11:50;45.70;50.40
20829;DHT22;10575;50.124;8.582;2023-08-24T09:14:16;46.70;46.40
20829;DHT22;10575;50.124;8.582;2023-08-24T09:16:42;45.70;46.20
20829;DHT22;10575;50.124;8.582;2023-08-24T09:19:11;45.40;44.70
20829;DHT22;10575;50.124;8.582;2023-08-24T09:21:40;43.10;46.70
20829;DHT22;10575;50.124;8.582;2023-08-24T09:24:07;41.30;50.50
20829;DHT22;10575;50.124;8.582;2023-08-24T09:26:37;39.90;53.60
20829;DHT22;10575;50.124;8.582;2023-08-24T09:29:15;40.10;53.40
20829;DHT22;10575;50.124;8.582;2023-08-24T09:31:41;37.40;57.30
20829;DHT22;10575;50.124;8.582;2023-08-24T09:34:09;34.70;61.70
20829;DHT22;10575;50.124;8.582;2023-08-24T09:36:36;33.60;67.70
20829;DHT22;10575;50.124;8.582;2023-08-24T09:39:03;34.00;69.00
20829;DHT22;10575;50.124;8.582;2023-08-24T09:41:39;33.00;67.80
20829;DHT22;10575;50.124;8.582;2023-08-24T09:44:07;33.00;69.90
20829;DHT22;10575;50.124;8.582;2023-08-24T09:46:35;32.20;74.90
20829;DHT22;10575;50.124;8.582;2023-08-24T09:49:05;31.30;78.70
20829;DHT22;10575;50.124;8.582;2023-08-24T09:51:32;30.80;79.50
20829;DHT22;10575;50.124;8.582;2023-08-24T09:53:58;30.90;78.30
20829;DHT22;10575;50.124;8.582;2023-08-24T09:56:28;30.50;81.40
20829;DHT22;10575;50.124;8.582;2023-08-24T09:58:54;30.00;81.40
20829;DHT22;10575;50.124;8.582;2023-08-24T10:01:22;29.90;85.70
20829;DHT22;10575;50.124;8.582;2023-08-24T10:06:27;29.90;84.20
20829;DHT22;10575;50.124;8.582;2023-08-24T10:08:55;29.90;88.20
20829;DHT22;10575;50.124;8.582;2023-08-24T10:11:26;29.80;87.40
20829;DHT22;10575;50.124;8.582;2023-08-24T10:16:43;29.90;84.20
20829;DHT22;10575;50.124;8.582;2023-08-24T10:19:09;30.40;88.90
20829;DHT22;10575;50.124;8.582;2023-08-24T10:21:37;30.40;85.80
20829;DHT22;10575;50.124;8.582;2023-08-24T11:18:25;32.30;73.90
20829;DHT22;10575;50.124;8.582;2023-08-24T11:20:55;32.40;72.90
20829;DHT22;10575;50.124;8.582;2023-08-24T11:23:22;32.40;74.10
20829;DHT22;10575;50.124;8.582;2023-08-24T11:25:50;32.50;74.10
20829;DHT22;10575;50.124;8.582;2023-08-24T11:28:20;32.60;72.50
20829;DHT22;10575;50.124;8.582;2023-08-24T11:38:36;32.90;74.10
20829;DHT22;10575;50.124;8.582;2023-08-24T11:48:49;32.10;76.40
20829;DHT22;10575;50.124;8.582;2023-08-24T12:14:40;31.90;80.80
20829;DHT22;10575;50.124;8.582;2023-08-24T12:22:33;31.80;75.40
20829;DHT22;10575;50.124;8.582;2023-08-24T12:27:34;32.00;77.40
20829;DHT22;10575;50.124;8.582;2023-08-24T12:42:54;32.30;75.30
20829;DHT22;10575;50.124;8.582;2023-08-24T12:50:30;32.10;73.90
20829;DHT22;10575;50.124;8.582;2023-08-24T12:55:31;32.10;74.20
20829;DHT22;10575;50.124;8.582;2023-08-24T12:57:57;32.10;75.00
20829;DHT22;10575;50.124;8.582;2023-08-24T13:00:23;31.70;78.40
20829;DHT22;10575;50.124;8.582;2023-08-24T13:13:03;30.90;83.50
20829;DHT22;10575;50.124;8.582;2023-08-24T13:15:29;30.90;84.70
20829;DHT22;10575;50.124;8.582;2023-08-24T13:17:55;31.20;85.00
20829;DHT22;10575;50.124;8.582;2023-08-24T13:20:21;31.40;80.70
20829;DHT22;10575;50.124;8.582;2023-08-24T13:22:47;31.50;82.10
20829;DHT22;10575;50.124;8.582;2023-08-24T13:25:13;31.40;81.80
20829;DHT22;10575;50.124;8.582;2023-08-24T13:27:38;31.00;82.00
20829;DHT22;10575;50.124;8.582;2023-08-24T13:30:04;30.50;84.50
20829;DHT22;10575;50.124;8.582;2023-08-24T13:32:30;30.10;85.50
20829;DHT22;10575;50.124;8.582;2023-08-24T13:34:55;29.80;86.50
20829;DHT22;10575;50.124;8.582;2023-08-24T13:37:21;29.70;88.80
20829;DHT22;10575;50.124;8.582;2023-08-24T13:39:47;29.70;89.90
20829;DHT22;10575;50.124;8.582;2023-08-24T13:42:12;29.60;90.90
20829;DHT22;10575;50.124;8.582;2023-08-24T13:44:38;29.70;90.80
20829;DHT22;10575;50.124;8.582;2023-08-24T13:52:10;30.00;89.50
20829;DHT22;10575;50.124;8.582;2023-08-24T13:54:38;30.10;90.30
20829;DHT22;10575;50.124;8.582;2023-08-24T13:57:08;30.00;90.00
20829;DHT22;10575;50.124;8.582;2023-08-24T13:59:58;29.80;90.80
20829;DHT22;10575;50.124;8.582;2023-08-24T14:02:50;29.70;90.60
20829;DHT22;10575;50.124;8.582;2023-08-24T14:05:16;30.00;90.30
20829;DHT22;10575;50.124;8.582;2023-08-24T14:07:41;29.80;90.50
20829;DHT22;10575;50.124;8.582;2023-08-24T14:10:07;29.60;90.60
20829;DHT22;10575;50.124;8.582;2023-08-24T14:12:33;29.40;90.30
20829;DHT22;10575;50.124;8.582;2023-08-24T14:15:02;29.30;90.70
20829;DHT22;10575;50.124;8.582;2023-08-24T14:17:28;29.10;90.90
20829;DHT22;10575;50.124;8.582;2023-08-24T14:19:53;29.10;90.90
20829;DHT22;10575;50.124;8.582;2023-08-24T14:22:21;29.10;89.50
20829;DHT22;10575;50.124;8.582;2023-08-24T14:24:47;29.00;89.90
20829;DHT22;10575;50.124;8.582;2023-08-24T14:27:15;29.10;92.10
20829;DHT22;10575;50.124;8.582;2023-08-24T14:29:41;29.10;91.20
20829;DHT22;10575;50.124;8.582;2023-08-24T14:32:06;28.90;90.80
20829;DHT22;10575;50.124;8.582;2023-08-24T14:34:38;28.80;91.00
20829;DHT22;10575;50.124;8.582;2023-08-24T14:37:04;28.80;91.10
20829;DHT22;10575;50.124;8.582;2023-08-24T14:39:29;29.10;91.00
20829;DHT22;10575;50.124;8.582;2023-08-24T14:44:33;29.60;91.30
20829;DHT22;10575;50.124;8.582;2023-08-24T14:49:39;29.80;92.20
20829;DHT22;10575;50.124;8.582;2023-08-24T14:52:07;29.80;93.50
20829;DHT22;10575;50.124;8.582;2023-08-24T14:59:36;29.40;94.70
20829;DHT22;10575;50.124;8.582;2023-08-24T15:02:05;29.20;95.40
20829;DHT22;10575;50.124;8.582;2023-08-24T15:04:30;28.90;95.90
20829;DHT22;10575;50.124;8.582;2023-08-24T15:06:57;28.90;95.90
20829;DHT22;10575;50.124;8.582;2023-08-24T15:11:54;28.60;96.50
20829;DHT22;10575;50.124;8.582;2023-08-24T15:16:55;28.80;96.70
20829;DHT22;10575;50.124;8.582;2023-08-24T15:19:25;29.00;97.10
20829;DHT22;10575;50.124;8.582;2023-08-24T15:21:51;29.20;97.20
20829;DHT22;10575;50.124;8.582;2023-08-24T15:24:17;29.30;96.50
20829;DHT22;10575;50.124;8.582;2023-08-24T15:26:43;29.40;95.80
20829;DHT22;10575;50.124;8.582;2023-08-24T15:29:13;29.20;95.10
20829;DHT22;10575;50.124;8.582;2023-08-24T15:31:41;28.90;95.80
20829;DHT22;10575;50.124;8.582;2023-08-24T15:34:07;28.70;96.00
20829;DHT22;10575;50.124;8.582;2023-08-24T15:36:33;28.40;96.00
20829;DHT22;10575;50.124;8.582;2023-08-24T15:38:59;28.20;96.50
20829;DHT22;10575;50.124;8.582;2023-08-24T15:41:25;28.10;97.40
20829;DHT22;10575;50.124;8.582;2023-08-24T15:43:50;27.90;97.90
20829;DHT22;10575;50.124;8.582;2023-08-24T15:46:16;27.80;98.30
20829;DHT22;10575;50.124;8.582;2023-08-24T15:48:42;27.70;98.80
20829;DHT22;10575;50.124;8.582;2023-08-24T15:51:08;27.50;99.50
20829;DHT22;10575;50.124;8.582;2023-08-24T15:53:34;27.50;99.90
20829;DHT22;10575;50.124;8.582;2023-08-24T15:56:00;27.50;99.90
20829;DHT22;10575;50.124;8.582;2023-08-24T15:58:25;27.40;99.90
20829;DHT22;10575;50.124;8.582;2023-08-24T16:00:51;27.40;99.90
20829;DHT22;10575;50.124;8.582;2023-08-24T16:06:11;27.50;99.90
20829;DHT22;10575;50.124;8.582;2023-08-24T16:08:36;27.70;99.90
20829;DHT22;10575;50.124;8.582;2023-08-24T16:11:02;27.70;99.90
20829;DHT22;10575;50.124;8.582;2023-08-24T16:13:28;27.70;99.90
20829;DHT22;10575;50.124;8.582;2023-08-24T16:15:53;27.60;99.90
20829;DHT22;10575;50.124;8.582;2023-08-24T16:18:23;27.60;99.90
20829;DHT22;10575;50.124;8.582;2023-08-24T16:20:52;27.60;99.90
20829;DHT22;10575;50.124;8.582;2023-08-24T16:23:18;27.40;99.90
20829;DHT22;10575;50.124;8.582;2023-08-24T16:25:44;27.20;99.90
20829;DHT22;10575;50.124;8.582;2023-08-24T16:28:12;27.20;99.90
20829;DHT22;10575;50.124;8.582;2023-08-24T16:30:38;27.20;99.90
20829;DHT22;10575;50.124;8.582;2023-08-24T16:33:04;27.40;99.90
20829;DHT22;10575;50.124;8.582;2023-08-24T16:35:29;27.30;99.90
20829;DHT22;10575;50.124;8.582;2023-08-24T16:37:55;27.30;99.90
20829;DHT22;10575;50.124;8.582;2023-08-24T16:40:20;27.20;99.90
20829;DHT22;10575;50.124;8.582;2023-08-24T16:42:46;27.10;99.90
20829;DHT22;10575;50.124;8.582;2023-08-24T16:45:11;27.20;99.90
20829;DHT22;10575;50.124;8.582;2023-08-24T16:47:37;27.20;99.90
20829;DHT22;10575;50.124;8.582;2023-08-24T16:52:37;27.40;99.90
20829;DHT22;10575;50.124;8.582;2023-08-24T16:55:03;27.50;99.90
20829;DHT22;10575;50.124;8.582;2023-08-24T16:57:29;27.50;99.90
20829;DHT22;10575;50.124;8.582;2023-08-24T17:05:14;27.70;99.90
20829;DHT22;10575;50.124;8.582;2023-08-24T17:07:40;27.80;99.90
20829;DHT22;10575;50.124;8.582;2023-08-24T17:10:07;27.80;99.90
20829;DHT22;10575;50.124;8.582;2023-08-24T17:12:33;27.80;99.90
20829;DHT22;10575;50.124;8.582;2023-08-24T17:14:59;27.80;99.90
20829;DHT22;10575;50.124;8.582;2023-08-24T17:17:24;27.60;99.90
20829;DHT22;10575;50.124;8.582;2023-08-24T17:19:50;27.50;99.90
20829;DHT22;10575;50.124;8.582;2023-08-24T17:22:17;27.30;99.90
20829;DHT22;10575;50.124;8.582;2023-08-24T17:24:43;27.00;99.90
20829;DHT22;10575;50.124;8.582;2023-08-24T17:29:34;26.60;99.90
20829;DHT22;10575;50.124;8.582;2023-08-24T17:31:59;26.80;99.90
20829;DHT22;10575;50.124;8.582;2023-08-24T17:34:25;26.80;99.90
20829;DHT22;10575;50.124;8.582;2023-08-24T17:36:50;26.70;99.90
20829;DHT22;10575;50.124;8.582;2023-08-24T17:39:18;26.40;99.90
20829;DHT22;10575;50.124;8.582;2023-08-24T17:41:44;26.20;99.90
20829;DHT22;10575;50.124;8.582;2023-08-24T17:44:11;26.00;99.90
20829;DHT22;10575;50.124;8.582;2023-08-24T17:46:37;25.80;99.90
20829;DHT22;10575;50.124;8.582;2023-08-24T17:49:02;25.20;99.90
20829;DHT22;10575;50.124;8.582;2023-08-24T17:51:30;24.70;99.90
20829;DHT22;10575;50.124;8.582;2023-08-24T17:53:55;24.30;99.90
20829;DHT22;10575;50.124;8.582;2023-08-24T17:56:22;24.10;99.90
20829;DHT22;10575;50.124;8.582;2023-08-24T17:58:48;24.10;99.90
20829;DHT22;10575;50.124;8.582;2023-08-24T18:01:13;24.10;99.90
20829;DHT22;10575;50.124;8.582;2023-08-24T18:03:39;24.20;99.90
20829;DHT22;10575;50.124;8.582;2023-08-24T18:06:04;24.30;99.90
20829;DHT22;10575;50.124;8.582;2023-08-24T18:08:30;24.30;99.90
20829;DHT22;10575;50.124;8.582;2023-08-24T18:11:02;24.20;99.90
20829;DHT22;10575;50.124;8.582;2023-08-24T18:13:29;24.10;99.90
20829;DHT22;10575;50.124;8.582;2023-08-24T18:15:54;24.20;99.90
20829;DHT22;10575;50.124;8.582;2023-08-24T18:18:21;24.30;99.90
20829;DHT22;10575;50.124;8.582;2023-08-24T18:20:46;24.30;99.90
20829;DHT22;10575;50.124;8.582;2023-08-24T18:23:12;24.40;99.90